createdAt,value
2019-02-05T00:01:07.290Z,16.30
2019-02-05T00:03:39.468Z,16.28
2019-02-05T00:06:11.793Z,16.27
2019-02-05T00:08:44.331Z,16.29
2019-02-05T00:11:16.523Z,16.29
2019-02-05T00:13:48.857Z,16.28
2019-02-05T00:16:22.288Z,16.26
2019-02-05T00:18:54.575Z,16.27
2019-02-05T00:21:26.823Z,16.26
2019-02-05T00:24:00.305Z,16.27
2019-02-05T00:26:32.556Z,16.25
2019-02-05T00:29:04.766Z,16.27
2019-02-05T00:31:37.437Z,16.26
2019-02-05T00:34:09.676Z,16.27
2019-02-05T00:36:41.992Z,16.27
2019-02-05T00:39:14.248Z,16.26
2019-02-05T00:41:46.459Z,16.28
2019-02-05T00:44:18.943Z,16.28
2019-02-05T00:46:51.397Z,16.29
2019-02-05T00:49:23.758Z,16.26
2019-02-05T00:51:56.120Z,16.26
2019-02-05T00:54:28.244Z,16.27
2019-02-05T00:57:00.788Z,16.25
2019-02-05T00:59:32.877Z,16.22
2019-02-05T01:02:05.337Z,16.23
2019-02-05T01:04:38.437Z,16.23
2019-02-05T01:07:10.704Z,16.24
2019-02-05T01:09:42.976Z,16.24
2019-02-05T01:12:15.094Z,16.23
2019-02-05T01:14:47.596Z,16.23
2019-02-05T01:17:20.197Z,16.23
2019-02-05T01:19:52.777Z,16.23
2019-02-05T01:22:27.362Z,16.24
2019-02-05T01:24:59.628Z,16.22
2019-02-05T01:27:31.835Z,16.22
2019-02-05T01:30:04.159Z,16.22
2019-02-05T01:32:36.357Z,16.20
2019-02-05T01:35:08.769Z,16.22
2019-02-05T01:37:40.961Z,16.22
2019-02-05T01:40:14.142Z,16.23
2019-02-05T01:42:46.704Z,16.24
2019-02-05T01:45:19.668Z,16.21
2019-02-05T01:47:51.650Z,16.20
2019-02-05T01:50:24.943Z,16.20
2019-02-05T01:52:57.167Z,16.21
2019-02-05T01:55:29.649Z,16.20
2019-02-05T01:58:01.882Z,16.21
2019-02-05T02:00:36.046Z,16.20
2019-02-05T02:03:08.525Z,16.19
2019-02-05T02:05:40.997Z,16.21
2019-02-05T02:08:13.548Z,16.19
2019-02-05T02:10:45.781Z,16.18
2019-02-05T02:13:17.926Z,16.19
2019-02-05T02:15:50.415Z,16.15
2019-02-05T02:18:23.022Z,16.16
2019-02-05T02:20:55.261Z,16.16
2019-02-05T02:23:27.496Z,16.15
2019-02-05T02:25:59.909Z,16.15
2019-02-05T02:28:32.014Z,16.14
2019-02-05T02:31:05.114Z,16.15
2019-02-05T02:33:37.342Z,16.15
2019-02-05T02:36:09.795Z,16.15
2019-02-05T02:38:47.403Z,16.14
2019-02-05T02:41:20.010Z,16.13
2019-02-05T02:43:52.236Z,16.12
2019-02-05T02:46:24.966Z,16.13
2019-02-05T02:48:57.284Z,16.12
2019-02-05T02:51:29.501Z,16.14
2019-02-05T02:54:03.042Z,16.15
2019-02-05T02:56:35.252Z,16.13
2019-02-05T02:59:09.260Z,16.14
2019-02-05T03:01:41.481Z,16.14
2019-02-05T03:04:13.699Z,16.14
2019-02-05T03:06:45.868Z,16.10
2019-02-05T03:09:18.317Z,16.10
2019-02-05T03:11:50.663Z,16.11
2019-02-05T03:14:23.085Z,16.11
2019-02-05T03:16:55.705Z,16.08
2019-02-05T03:19:28.394Z,16.11
2019-02-05T03:22:00.714Z,16.08
2019-02-05T03:24:33.306Z,16.05
2019-02-05T03:27:16.924Z,16.05
2019-02-05T03:29:39.360Z,16.03
2019-02-05T03:32:12.013Z,16.04
2019-02-05T03:34:44.068Z,16.03
2019-02-05T03:37:16.519Z,16.03
2019-02-05T03:39:48.688Z,16.04
2019-02-05T03:42:21.595Z,16.03
2019-02-05T03:44:57.131Z,16.09
2019-02-05T03:47:29.910Z,16.02
2019-02-05T03:50:02.058Z,16.01
2019-02-05T03:52:39.033Z,16.00
2019-02-05T03:55:28.044Z,16.00
2019-02-05T03:58:21.772Z,16.02
2019-02-05T04:01:11.982Z,16.02
2019-02-05T04:04:02.815Z,16.01
2019-02-05T04:06:51.969Z,15.99
2019-02-05T04:09:43.700Z,15.98
2019-02-05T04:12:37.196Z,15.98
2019-02-05T04:15:24.129Z,16.00
2019-02-05T04:18:15.086Z,15.99
2019-02-05T04:21:08.834Z,15.98
2019-02-05T04:23:49.566Z,15.96
2019-02-05T04:26:27.865Z,15.96
2019-02-05T04:29:17.530Z,15.98
2019-02-05T04:32:09.666Z,16.02
2019-02-05T04:34:57.566Z,16.01
2019-02-05T04:37:57.260Z,16.00
2019-02-05T04:40:51.781Z,15.98
2019-02-05T04:43:40.809Z,16.02
2019-02-05T04:46:49.560Z,15.98
2019-02-05T04:49:38.843Z,15.96
2019-02-05T04:52:28.191Z,15.97
2019-02-05T04:55:21.690Z,15.97
2019-02-05T04:58:12.319Z,16.00
2019-02-05T05:01:09.304Z,16.00
2019-02-05T05:03:46.376Z,15.98
2019-02-05T05:06:22.672Z,15.97
2019-02-05T05:09:19.671Z,15.95
2019-02-05T05:11:52.000Z,16.02
2019-02-05T05:14:24.124Z,16.26
2019-02-05T05:16:56.784Z,16.28
2019-02-05T05:19:28.823Z,16.28
2019-02-05T05:22:01.153Z,16.29
2019-02-05T05:24:33.703Z,16.26
2019-02-05T05:27:05.992Z,16.27
2019-02-05T05:29:38.305Z,16.30
2019-02-05T05:32:10.459Z,16.14
2019-02-05T05:34:42.773Z,16.11
2019-02-05T05:37:14.273Z,16.11
2019-02-05T05:39:46.598Z,16.08
2019-02-05T05:42:18.894Z,16.05
2019-02-05T05:44:51.230Z,16.03
2019-02-05T05:47:23.456Z,16.01
2019-02-05T05:49:55.796Z,16.02
2019-02-05T05:52:27.983Z,16.02
2019-02-05T05:55:00.425Z,16.01
2019-02-05T05:57:33.464Z,16.00
2019-02-05T06:00:05.810Z,16.00
2019-02-05T06:02:39.932Z,16.01
2019-02-05T06:05:14.252Z,16.02
2019-02-05T06:07:46.649Z,16.03
2019-02-05T06:10:19.123Z,16.02
2019-02-05T06:12:51.459Z,16.02
2019-02-05T06:15:23.719Z,16.02
2019-02-05T06:17:57.622Z,16.02
2019-02-05T06:20:29.775Z,16.03
2019-02-05T06:23:01.971Z,16.03
2019-02-05T06:25:34.010Z,16.02
2019-02-05T06:28:07.561Z,16.02
2019-02-05T06:30:40.106Z,16.02
2019-02-05T06:33:12.772Z,16.03
2019-02-05T06:35:45.012Z,16.03
2019-02-05T06:38:17.263Z,16.05
2019-02-05T06:40:49.384Z,16.08
2019-02-05T06:43:23.936Z,16.06
2019-02-05T06:45:56.154Z,16.05
2019-02-05T06:48:28.312Z,16.05
2019-02-05T06:51:02.404Z,16.06
2019-02-05T06:53:34.927Z,16.08
2019-02-05T06:56:06.980Z,16.08
2019-02-05T06:58:45.990Z,16.06
2019-02-05T07:01:13.359Z,16.08
2019-02-05T07:03:45.661Z,16.08
2019-02-05T07:06:17.752Z,16.07
2019-02-05T07:08:49.985Z,16.07
2019-02-05T07:11:22.440Z,16.09
2019-02-05T07:13:54.860Z,16.09
2019-02-05T07:16:26.979Z,16.09
2019-02-05T07:18:59.314Z,16.09
2019-02-05T07:21:31.610Z,16.10
2019-02-05T07:24:04.160Z,16.15
2019-02-05T07:26:37.835Z,16.14
2019-02-05T07:29:12.082Z,16.13
2019-02-05T07:31:44.502Z,16.12
2019-02-05T07:34:17.752Z,16.14
2019-02-05T07:36:52.016Z,16.16
2019-02-05T07:39:24.242Z,16.15
2019-02-05T07:41:57.672Z,16.16
2019-02-05T07:44:29.800Z,16.18
2019-02-05T07:47:03.088Z,16.17
2019-02-05T07:49:35.252Z,16.15
2019-02-05T07:52:09.393Z,16.16
2019-02-05T07:54:41.551Z,16.17
2019-02-05T07:57:13.699Z,16.16
2019-02-05T07:59:47.137Z,16.17
2019-02-05T08:02:19.502Z,16.16
2019-02-05T08:04:51.596Z,16.17
2019-02-05T08:07:23.643Z,16.16
2019-02-05T08:09:55.783Z,16.17
2019-02-05T08:12:27.975Z,16.24
2019-02-05T08:15:00.352Z,16.24
2019-02-05T08:17:33.615Z,16.25
2019-02-05T08:20:06.078Z,16.23
2019-02-05T08:22:38.250Z,16.22
2019-02-05T08:25:11.240Z,16.21
2019-02-05T08:27:43.558Z,16.21
2019-02-05T08:30:17.588Z,16.22
2019-02-05T08:32:49.698Z,16.25
2019-02-05T08:35:21.732Z,16.24
2019-02-05T08:37:53.982Z,16.24
2019-02-05T08:40:26.200Z,16.24
2019-02-05T08:42:59.348Z,16.23
2019-02-05T08:45:31.836Z,16.22
2019-02-05T08:48:04.103Z,16.26
2019-02-05T08:50:36.134Z,16.24
2019-02-05T08:53:09.430Z,16.25
2019-02-05T08:55:41.555Z,16.26
2019-02-05T08:58:14.312Z,16.25
2019-02-05T09:00:46.579Z,16.26
2019-02-05T09:03:18.697Z,16.26
2019-02-05T09:05:50.916Z,16.27
2019-02-05T09:08:24.147Z,16.27
2019-02-05T09:10:56.643Z,16.27
2019-02-05T09:13:28.783Z,16.28
2019-02-05T09:16:00.864Z,16.28
2019-02-05T09:18:32.934Z,16.29
2019-02-05T09:21:05.059Z,16.30
2019-02-05T09:23:37.560Z,16.30
2019-02-05T09:26:09.856Z,16.31
2019-02-05T09:28:41.863Z,16.31
2019-02-05T09:31:14.028Z,16.35
2019-02-05T09:33:46.266Z,16.37
2019-02-05T09:36:18.328Z,16.36
2019-02-05T09:38:50.560Z,16.35
2019-02-05T09:41:22.676Z,16.36
2019-02-05T09:43:54.970Z,16.42
2019-02-05T09:46:27.167Z,16.40
2019-02-05T09:48:59.160Z,16.42
2019-02-05T09:51:31.330Z,16.46
2019-02-05T09:54:04.313Z,16.49
2019-02-05T09:56:36.629Z,16.54
2019-02-05T09:59:08.849Z,16.59
2019-02-05T10:01:42.072Z,16.61
2019-02-05T10:04:14.314Z,16.65
2019-02-05T10:06:46.402Z,16.69
2019-02-05T10:09:19.677Z,16.74
2019-02-05T10:11:51.760Z,16.76
2019-02-05T10:14:24.042Z,16.79
2019-02-05T10:16:56.616Z,16.79
2019-02-05T10:19:28.719Z,16.81
2019-02-05T10:22:00.859Z,16.82
2019-02-05T10:24:33.000Z,16.89
2019-02-05T10:27:07.852Z,16.89
2019-02-05T10:29:40.357Z,16.94
2019-02-05T10:32:12.610Z,16.89
2019-02-05T10:34:44.743Z,16.82
2019-02-05T10:37:16.852Z,16.80
2019-02-05T10:39:49.038Z,16.77
2019-02-05T10:42:22.670Z,16.76
2019-02-05T10:44:55.046Z,16.76
2019-02-05T10:47:27.214Z,16.77
2019-02-05T10:50:00.255Z,16.80
2019-02-05T10:52:33.269Z,16.76
2019-02-05T10:55:05.542Z,16.77
2019-02-05T10:57:37.764Z,16.75
2019-02-05T11:00:11.595Z,16.76
2019-02-05T11:02:44.047Z,16.76
2019-02-05T11:05:17.411Z,16.76
2019-02-05T11:07:49.837Z,16.76
2019-02-05T11:10:22.211Z,16.76
2019-02-05T11:12:55.294Z,16.77
2019-02-05T11:15:32.241Z,16.76
2019-02-05T11:18:04.538Z,16.77
2019-02-05T11:20:36.805Z,16.77
2019-02-05T11:23:09.298Z,16.77
2019-02-05T11:25:41.236Z,16.78
2019-02-05T11:28:13.407Z,16.79
2019-02-05T11:30:47.221Z,16.80
2019-02-05T11:33:19.903Z,16.78
2019-02-05T11:35:51.997Z,16.79
2019-02-05T11:38:24.442Z,16.81
2019-02-05T11:40:56.821Z,16.80
2019-02-05T11:43:29.321Z,16.81
2019-02-05T11:46:02.790Z,16.82
2019-02-05T11:48:34.821Z,16.82
2019-02-05T11:51:06.977Z,16.83
2019-02-05T11:53:39.622Z,16.84
2019-02-05T11:56:11.671Z,16.84
2019-02-05T11:58:44.543Z,16.83
2019-02-05T12:01:23.049Z,16.84
2019-02-05T12:03:55.045Z,16.86
2019-02-05T12:06:28.231Z,16.86
2019-02-05T12:09:00.267Z,16.87
2019-02-05T12:11:35.026Z,16.87
2019-02-05T12:14:06.963Z,16.87
2019-02-05T12:16:40.168Z,16.89
2019-02-05T12:19:12.222Z,16.90
2019-02-05T12:21:44.493Z,16.90
2019-02-05T12:24:16.856Z,16.91
2019-02-05T12:26:49.230Z,16.91
2019-02-05T12:29:21.159Z,16.93
2019-02-05T12:31:53.390Z,16.93
2019-02-05T12:34:25.516Z,16.94
2019-02-05T12:36:59.050Z,16.93
2019-02-05T12:39:31.074Z,16.94
2019-02-05T12:42:04.146Z,16.95
2019-02-05T12:44:36.393Z,16.95
2019-02-05T12:47:09.522Z,16.96
2019-02-05T12:49:41.938Z,16.96
2019-02-05T12:52:13.748Z,16.96
2019-02-05T12:54:46.095Z,16.97
2019-02-05T12:57:18.165Z,16.97
2019-02-05T12:59:50.538Z,16.97
2019-02-05T13:02:22.846Z,16.97
2019-02-05T13:04:55.052Z,16.99
2019-02-05T13:07:27.307Z,16.99
2019-02-05T13:10:00.756Z,17.00
2019-02-05T13:12:32.943Z,17.01
2019-02-05T13:15:06.322Z,17.00
2019-02-05T13:17:39.543Z,17.01
2019-02-05T13:20:13.768Z,17.01
2019-02-05T13:22:46.060Z,17.02
2019-02-05T13:25:20.855Z,17.02
2019-02-05T13:27:53.234Z,17.02
2019-02-05T13:30:28.832Z,17.02
2019-02-05T13:33:02.069Z,17.04
2019-02-05T13:35:35.159Z,17.04
2019-02-05T13:38:07.525Z,17.05
2019-02-05T13:40:40.026Z,17.05
2019-02-05T13:43:16.808Z,17.06
2019-02-05T13:45:49.135Z,17.06
2019-02-05T13:48:21.171Z,17.05
2019-02-05T13:50:53.303Z,17.06
2019-02-05T13:53:25.643Z,17.08
2019-02-05T13:55:58.142Z,17.09
2019-02-05T13:58:30.149Z,17.09
2019-02-05T14:01:02.435Z,17.10
2019-02-05T14:03:34.744Z,17.09
2019-02-05T14:06:07.015Z,17.11
2019-02-05T14:08:38.895Z,17.10
2019-02-05T14:11:11.285Z,17.14
2019-02-05T14:13:43.511Z,17.14
2019-02-05T14:16:15.962Z,17.14
2019-02-05T14:18:54.823Z,17.18
2019-02-05T14:21:22.011Z,17.18
2019-02-05T14:23:54.506Z,17.21
2019-02-05T14:26:27.271Z,17.18
2019-02-05T14:28:59.315Z,17.16
2019-02-05T14:31:31.764Z,17.18
2019-02-05T14:34:03.985Z,17.17
2019-02-05T14:36:37.368Z,17.17
2019-02-05T14:39:10.763Z,17.22
2019-02-05T14:41:43.116Z,17.21
2019-02-05T14:44:15.230Z,17.19
2019-02-05T14:46:47.555Z,17.21
2019-02-05T14:49:19.728Z,17.21
2019-02-05T14:51:53.961Z,17.23
2019-02-05T14:54:26.172Z,17.28
2019-02-05T14:56:58.973Z,17.26
2019-02-05T14:59:31.611Z,17.23
2019-02-05T15:02:03.921Z,17.23
2019-02-05T15:04:36.192Z,17.22
2019-02-05T15:07:08.545Z,17.22
2019-02-05T15:09:40.793Z,17.24
2019-02-05T15:12:13.223Z,17.23
2019-02-05T15:14:45.355Z,17.23
2019-02-05T15:17:17.575Z,17.23
2019-02-05T15:19:49.564Z,17.24
2019-02-05T15:22:21.715Z,17.23
2019-02-05T15:24:53.765Z,17.23
2019-02-05T15:27:26.294Z,17.25
2019-02-05T15:29:58.523Z,17.25
2019-02-05T15:32:55.696Z,17.29
2019-02-05T15:35:27.706Z,17.34
2019-02-05T15:38:00.124Z,17.42
2019-02-05T15:40:32.443Z,17.47
2019-02-05T15:43:06.164Z,17.46
2019-02-05T15:45:38.357Z,17.55
2019-02-05T15:48:10.612Z,17.59
2019-02-05T15:50:42.799Z,17.64
2019-02-05T15:53:14.969Z,17.72
2019-02-05T15:55:47.705Z,17.69
2019-02-05T15:58:20.396Z,17.70
2019-02-05T16:00:53.040Z,17.73
2019-02-05T16:03:25.274Z,17.73
2019-02-05T16:05:57.517Z,17.75
2019-02-05T16:08:29.804Z,17.78
2019-02-05T16:11:02.041Z,17.79
2019-02-05T16:13:34.530Z,17.81
2019-02-05T16:16:06.661Z,17.90
2019-02-05T16:18:38.961Z,18.17
2019-02-05T16:21:11.196Z,18.34
2019-02-05T16:23:43.531Z,18.25
2019-02-05T16:26:15.670Z,18.22
2019-02-05T16:28:48.318Z,18.12
2019-02-05T16:31:20.408Z,18.13
2019-02-05T16:33:52.744Z,18.14
2019-02-05T16:36:25.002Z,18.20
2019-02-05T16:38:57.269Z,18.22
2019-02-05T16:41:29.849Z,18.21
2019-02-05T16:44:02.206Z,18.26
2019-02-05T16:46:34.454Z,18.25
2019-02-05T16:49:07.345Z,18.31
2019-02-05T16:51:39.502Z,18.32
2019-02-05T16:54:11.829Z,18.26
2019-02-05T16:56:44.158Z,18.28
2019-02-05T16:59:17.344Z,18.31
2019-02-05T17:01:49.418Z,18.35
2019-02-05T17:04:21.826Z,18.46
2019-02-05T17:06:54.129Z,18.46
2019-02-05T17:09:27.680Z,18.41
2019-02-05T17:12:00.068Z,18.37
2019-02-05T17:14:33.621Z,18.37
2019-02-05T17:17:05.826Z,18.40
2019-02-05T17:19:38.226Z,18.40
2019-02-05T17:22:10.472Z,18.42
2019-02-05T17:24:43.715Z,18.41
2019-02-05T17:27:15.922Z,18.42
2019-02-05T17:29:50.090Z,18.47
2019-02-05T17:32:22.061Z,18.44
2019-02-05T17:34:54.215Z,18.47
2019-02-05T17:37:26.399Z,18.47
2019-02-05T17:39:58.645Z,18.45
2019-02-05T17:42:30.927Z,18.48
2019-02-05T17:45:03.194Z,18.51
2019-02-05T17:47:35.508Z,18.51
2019-02-05T17:50:07.953Z,18.50
2019-02-05T17:52:40.115Z,18.55
2019-02-05T17:55:12.513Z,18.49
2019-02-05T17:57:46.655Z,18.52
2019-02-05T18:00:25.508Z,18.54
2019-02-05T18:02:58.710Z,18.56
2019-02-05T18:05:34.806Z,18.54
2019-02-05T18:08:05.807Z,18.55
2019-02-05T18:10:38.127Z,18.63
2019-02-05T18:13:10.442Z,18.59
2019-02-05T18:15:42.409Z,18.59
2019-02-05T18:18:14.597Z,18.64
2019-02-05T18:20:46.678Z,18.65
2019-02-05T18:23:18.993Z,18.73
2019-02-05T18:25:51.187Z,18.67
2019-02-05T18:28:23.341Z,18.68
2019-02-05T18:30:56.130Z,18.74
2019-02-05T18:33:28.300Z,18.74
2019-02-05T18:36:00.607Z,18.73
2019-02-05T18:38:32.943Z,18.75
2019-02-05T18:41:05.108Z,18.71
2019-02-05T18:43:37.362Z,18.61
2019-02-05T18:46:09.536Z,18.50
2019-02-05T18:48:41.886Z,18.42
2019-02-05T18:51:14.304Z,18.39
2019-02-05T18:53:46.814Z,18.36
2019-02-05T18:56:19.151Z,18.33
2019-02-05T18:58:51.373Z,18.31
2019-02-05T19:01:23.702Z,18.30
2019-02-05T19:03:56.212Z,18.31
2019-02-05T19:06:29.449Z,18.28
2019-02-05T19:09:05.999Z,18.27
2019-02-05T19:11:38.158Z,18.26
2019-02-05T19:14:10.432Z,18.24
2019-02-05T19:16:42.739Z,18.24
2019-02-05T19:19:16.317Z,18.22
2019-02-05T19:21:48.693Z,18.25
2019-02-05T19:24:38.790Z,18.25
2019-02-05T19:27:11.160Z,18.22
2019-02-05T19:29:43.281Z,18.21
2019-02-05T19:32:18.928Z,18.19
2019-02-05T19:34:51.169Z,18.18
2019-02-05T19:37:23.522Z,18.17
2019-02-05T19:39:56.429Z,18.19
2019-02-05T19:42:28.903Z,18.16
2019-02-05T19:45:19.146Z,18.16
2019-02-05T19:47:51.587Z,18.16
2019-02-05T19:50:23.700Z,18.14
2019-02-05T19:52:57.036Z,18.15
2019-02-05T19:55:29.384Z,18.14
2019-02-05T19:58:02.346Z,18.13
2019-02-05T20:00:34.591Z,18.13
2019-02-05T20:03:06.903Z,18.13
2019-02-05T20:05:39.491Z,18.12
2019-02-05T20:08:11.971Z,18.12
2019-02-05T20:10:45.448Z,18.12
2019-02-05T20:13:17.777Z,18.12
2019-02-05T20:15:51.264Z,18.12
2019-02-05T20:18:23.929Z,18.12
2019-02-05T20:20:56.012Z,18.15
2019-02-05T20:23:28.433Z,18.18
2019-02-05T20:26:00.558Z,18.13
2019-02-05T20:28:32.891Z,18.13
2019-02-05T20:31:05.159Z,18.11
2019-02-05T20:33:37.383Z,18.11
2019-02-05T20:36:09.522Z,18.08
2019-02-05T20:38:41.733Z,18.07
2019-02-05T20:41:14.099Z,18.08
2019-02-05T20:43:46.439Z,18.07
2019-02-05T20:46:18.495Z,18.06
2019-02-05T20:48:52.923Z,18.07
2019-02-05T20:51:25.152Z,18.09
2019-02-05T20:53:59.743Z,18.07
2019-02-05T20:56:32.022Z,18.09
2019-02-05T20:59:24.939Z,18.10
2019-02-05T21:01:57.664Z,18.11
2019-02-05T21:04:29.822Z,18.11
2019-02-05T21:07:02.223Z,18.09
2019-02-05T21:09:34.489Z,18.10
2019-02-05T21:12:07.142Z,18.13
2019-02-05T21:14:40.110Z,18.13
2019-02-05T21:17:12.496Z,18.13
2019-02-05T21:19:44.740Z,18.13
2019-02-05T21:22:17.259Z,18.15
2019-02-05T21:24:50.015Z,18.14
2019-02-05T21:27:22.343Z,18.13
2019-02-05T21:29:54.495Z,18.11
2019-02-05T21:32:26.802Z,18.11
2019-02-05T21:34:59.020Z,18.11
2019-02-05T21:37:31.259Z,18.12
2019-02-05T21:40:03.395Z,18.11
2019-02-05T21:42:36.647Z,18.12
2019-02-05T21:45:08.869Z,18.13
2019-02-05T21:47:41.008Z,18.12
2019-02-05T21:50:13.693Z,18.12
2019-02-05T21:52:48.595Z,18.10
2019-02-05T21:55:19.956Z,18.09
2019-02-05T21:57:52.123Z,18.09
2019-02-05T22:00:25.469Z,18.07
2019-02-05T22:02:57.709Z,18.07
2019-02-05T22:05:29.830Z,18.09
2019-02-05T22:08:02.400Z,18.09
2019-02-05T22:10:35.154Z,18.08
2019-02-05T22:13:07.617Z,18.09
2019-02-05T22:15:39.651Z,18.08
2019-02-05T22:18:11.823Z,18.11
2019-02-05T22:20:43.991Z,18.06
2019-02-05T22:23:16.665Z,18.08
2019-02-05T22:25:48.797Z,18.07
2019-02-05T22:28:21.074Z,18.08
2019-02-05T22:30:54.488Z,18.06
2019-02-05T22:33:28.171Z,18.08
2019-02-05T22:36:00.560Z,18.08
2019-02-05T22:38:32.738Z,18.06
2019-02-05T22:41:04.921Z,18.09
2019-02-05T22:43:37.076Z,18.08
2019-02-05T22:46:09.218Z,18.05
2019-02-05T22:48:41.704Z,18.07
2019-02-05T22:51:13.885Z,18.08
2019-02-05T22:53:46.258Z,18.09
2019-02-05T22:56:18.433Z,18.11
2019-02-05T22:58:50.904Z,18.09
2019-02-05T23:01:28.577Z,18.09
2019-02-05T23:04:03.617Z,18.09
2019-02-05T23:06:53.086Z,18.06
2019-02-05T23:09:27.406Z,18.06
2019-02-05T23:12:22.672Z,18.04
2019-02-05T23:14:56.622Z,18.04
2019-02-05T23:17:28.808Z,18.03
2019-02-05T23:20:00.995Z,18.04
2019-02-05T23:22:33.245Z,18.05
2019-02-05T23:25:05.449Z,18.03
2019-02-05T23:27:37.923Z,18.05
2019-02-05T23:30:13.463Z,18.05
2019-02-05T23:32:45.872Z,18.04
2019-02-05T23:35:18.165Z,18.03
2019-02-05T23:37:51.077Z,18.04
2019-02-05T23:40:23.273Z,18.05
2019-02-05T23:42:55.574Z,18.06
2019-02-05T23:45:27.814Z,18.06
2019-02-05T23:48:00.390Z,18.06
2019-02-05T23:50:32.553Z,18.04
2019-02-05T23:53:04.834Z,18.03
2019-02-05T23:55:36.995Z,18.02
2019-02-05T23:58:09.504Z,18.02
